KARB/ARB METAR and TAF weather

Enter ICAO airport designator
Station Type Date Time Source
KARB METAR 2018/01/16 09:07 UTC NOAA

KARB 160907Z AUTO 22007KT 7SM OVC015 M10/M12 A3031 RMK AO2 T11001122


Station Type Date Time Source
KARB Decoded METAR 2018/01/16 09:07 UTC NOAA

ANN ARBOR MUNICIPAL AIRPORT, MI, United States (KARB) 42-13N 083-45W 251M
Jan 16, 2018 - 04:07 AM EST / 2018.01.16 0907 UTC
Wind: from the SW (220 degrees) at 8 MPH (7 KT):0
Visibility: 7 mile(s):0
Sky conditions: overcast
Temperature: 14.0 F (-10.0 C)
Windchill: 3 F (-16 C):1
Dew Point: 10.0 F (-12.2 C)
Relative Humidity: 83%
Pressure (altimeter): 30.31 in. Hg (1026 hPa)
ob: KARB 160907Z AUTO 22007KT 7SM OVC015 M10/M12 A3031 RMK AO2 T11001122
cycle: 9

Station Type Date Time Source
KARB TAF UTC NOAA

Error!


Example: see airport list